KWHP/WHP METAR and TAF weather

Enter ICAO airport designator
Station Type Date Time Source
KWHP METAR 2022/01/25 03:50 UTC NOAA

KWHP 250350Z 03005KT 10SM SKC 15/04 A3005


Station Type Date Time Source
KWHP Decoded METAR 2022/01/25 03:50 UTC NOAA

Los Angeles, Whiteman Airport, CA, United States (KWHP) 34-15N 118-24W
Jan 24, 2022 - 10:50 PM EST / 2022.01.25 0350 UTC
Wind: from the NNE (030 degrees) at 6 MPH (5 KT):0
Visibility: 10 mile(s):0
Sky conditions: clear
Temperature: 59 F (15 C)
Dew Point: 39 F (4 C)
Relative Humidity: 47%
Pressure (altimeter): 30.05 in. Hg (1017 hPa)
ob: KWHP 250350Z 03005KT 10SM SKC 15/04 A3005
cycle: 4

Station Type Date Time Source
KWHP TAF UTC NOAA

Error!

Example: see airport list